createdAt,value
2022-11-24T00:01:53.139Z,97230.84
2022-11-24T00:04:19.657Z,97238.38
2022-11-24T00:06:46.162Z,97242.44
2022-11-24T00:09:12.672Z,97239.47
2022-11-24T00:11:39.185Z,97241.66
2022-11-24T00:14:05.867Z,97241.94
2022-11-24T00:16:36.427Z,97234.81
2022-11-24T00:19:04.093Z,97250.25
2022-11-24T00:21:31.068Z,97250.53
2022-11-24T00:23:57.713Z,97241.25
2022-11-24T00:26:26.510Z,97242.03
2022-11-24T00:28:54.089Z,97244.50
2022-11-24T00:31:20.509Z,97246.69
2022-11-24T00:33:47.727Z,97247.75
2022-11-24T00:36:14.540Z,97246.75
2022-11-24T00:38:41.026Z,97257.16
2022-11-24T00:41:07.574Z,97253.50
2022-11-24T00:43:34.447Z,97258.03
2022-11-24T00:46:01.034Z,97262.88
2022-11-24T00:48:27.585Z,97258.63
2022-11-24T00:51:10.744Z,97257.63
2022-11-24T00:53:37.258Z,97263.59
2022-11-24T00:56:04.016Z,97261.19
2022-11-24T00:58:30.551Z,97262.88
2022-11-24T01:01:08.035Z,97268.50
2022-11-24T01:03:34.730Z,97276.03
2022-11-24T01:08:34.376Z,97275.50
2022-11-24T01:11:20.783Z,97275.81
2022-11-24T01:13:48.784Z,97280.94
2022-11-24T01:16:25.069Z,97286.59
2022-11-24T01:18:51.709Z,97279.16
2022-11-24T01:21:18.445Z,97284.78
2022-11-24T01:23:44.946Z,97290.91
2022-11-24T01:26:13.740Z,97290.13
2022-11-24T01:28:46.255Z,97287.47
2022-11-24T01:31:13.902Z,97301.91
2022-11-24T01:33:40.447Z,97304.03
2022-11-24T01:36:07.064Z,97299.31
2022-11-24T01:38:33.605Z,97312.66
2022-11-24T01:41:21.240Z,97306.81
2022-11-24T01:43:48.102Z,97300.38
2022-11-24T01:46:24.630Z,97309.25
2022-11-24T01:49:09.153Z,97298.88
2022-11-24T01:51:43.484Z,97303.75
2022-11-24T01:54:15.779Z,97303.75
2022-11-24T01:56:42.665Z,97310.72
2022-11-24T01:59:10.907Z,97307.56
2022-11-24T02:01:37.452Z,97307.84
2022-11-24T02:04:04.961Z,97302.03
2022-11-24T02:06:31.733Z,97315.13
2022-11-24T02:09:20.044Z,97305.53
2022-11-24T02:11:46.500Z,97306.13
2022-11-24T02:14:14.138Z,97317.09
2022-11-24T02:16:41.089Z,97318.13
2022-11-24T02:19:36.840Z,97317.94
2022-11-24T02:22:03.576Z,97319.31
2022-11-24T02:24:47.532Z,97329.97
2022-11-24T02:27:13.995Z,97324.41
2022-11-24T02:29:40.466Z,97334.91
2022-11-24T02:32:07.321Z,97333.03
2022-11-24T02:34:34.314Z,97333.28
2022-11-24T02:37:01.002Z,97342.66
2022-11-24T02:39:27.491Z,97340.56
2022-11-24T02:41:56.910Z,97339.47
2022-11-24T02:44:24.948Z,97338.47
2022-11-24T02:47:02.094Z,97343.31
2022-11-24T02:49:28.566Z,97341.22
2022-11-24T02:51:55.012Z,97332.22
2022-11-24T02:54:21.471Z,97352.75
2022-11-24T02:56:47.931Z,97347.41
2022-11-24T02:59:14.376Z,97353.03
2022-11-24T03:01:40.888Z,97347.22
2022-11-24T03:04:07.910Z,97350.16
2022-11-24T03:06:34.373Z,97353.34
2022-11-24T03:09:00.848Z,97358.59
2022-11-24T03:11:27.292Z,97360.47
2022-11-24T03:13:53.744Z,97365.50
2022-11-24T03:16:20.613Z,97366.88
2022-11-24T03:18:48.476Z,97372.78
2022-11-24T03:21:14.929Z,97370.69
2022-11-24T03:23:41.369Z,97372.06
2022-11-24T03:26:09.314Z,97369.38
2022-11-24T03:28:35.863Z,97369.94
2022-11-24T03:31:02.905Z,97375.84
2022-11-24T03:33:29.448Z,97377.78
2022-11-24T03:35:56.023Z,97384.13
2022-11-24T03:38:22.494Z,97391.56
2022-11-24T03:40:49.543Z,97388.38
2022-11-24T03:43:16.022Z,97382.25
2022-11-24T03:45:46.709Z,97389.97
2022-11-24T03:48:15.462Z,97389.97
2022-11-24T03:50:42.877Z,97391.56
2022-11-24T03:53:09.521Z,97393.72
2022-11-24T03:55:36.138Z,97392.13
2022-11-24T03:58:02.647Z,97397.75
2022-11-24T04:00:30.123Z,97404.44
2022-11-24T04:02:56.655Z,97406.59
2022-11-24T04:05:25.958Z,97418.34
2022-11-24T04:07:57.002Z,97415.16
2022-11-24T04:10:24.574Z,97415.69
2022-11-24T04:12:51.042Z,97423.69
2022-11-24T04:15:18.767Z,97417.88
2022-11-24T04:17:45.548Z,97423.19
2022-11-24T04:20:12.412Z,97423.25
2022-11-24T04:22:39.087Z,97421.69
2022-11-24T04:25:06.138Z,97428.88
2022-11-24T04:27:33.309Z,97428.88
2022-11-24T04:29:59.781Z,97430.75
2022-11-24T04:32:26.245Z,97434.44
2022-11-24T04:34:53.134Z,97427.53
2022-11-24T04:37:19.604Z,97428.63
2022-11-24T04:39:46.341Z,97432.38
2022-11-24T04:42:12.943Z,97439.03
2022-11-24T04:44:39.409Z,97440.41
2022-11-24T04:47:05.983Z,97444.41
2022-11-24T04:49:32.500Z,97447.38
2022-11-24T04:51:59.152Z,97452.97
2022-11-24T04:54:25.622Z,97451.97
2022-11-24T04:56:52.143Z,97459.13
2022-11-24T04:59:18.979Z,97460.50
2022-11-24T05:01:46.063Z,97450.41
2022-11-24T05:04:13.536Z,97462.13
2022-11-24T05:06:40.112Z,97459.75
2022-11-24T05:09:06.702Z,97458.69
2022-11-24T05:11:33.262Z,97469.31
2022-11-24T05:14:00.120Z,97468.53
2022-11-24T05:16:26.599Z,97476.53
2022-11-24T05:18:53.142Z,97481.06
2022-11-24T05:21:19.623Z,97484.50
2022-11-24T05:23:46.105Z,97483.19
2022-11-24T05:26:12.666Z,97489.88
2022-11-24T05:28:39.185Z,97488.28
2022-11-24T05:31:05.767Z,97483.53
2022-11-24T05:33:33.353Z,97489.94
2022-11-24T05:36:01.363Z,97484.06
2022-11-24T05:38:27.943Z,97484.59
2022-11-24T05:40:54.478Z,97485.41
2022-11-24T05:43:20.967Z,97488.84
2022-11-24T05:45:47.442Z,97489.63
2022-11-24T05:48:14.673Z,97493.38
2022-11-24T05:50:41.141Z,97494.19
2022-11-24T05:53:12.189Z,97501.38
2022-11-24T05:55:39.369Z,97497.09
2022-11-24T05:58:07.194Z,97501.63
2022-11-24T06:00:34.257Z,97505.38
2022-11-24T06:03:00.852Z,97508.59
2022-11-24T06:05:27.868Z,97509.41
2022-11-24T06:07:54.623Z,97508.59
2022-11-24T06:10:22.002Z,97514.19
2022-11-24T06:12:48.475Z,97516.34
2022-11-24T06:15:14.982Z,97515.28
2022-11-24T06:17:41.547Z,97515.28
2022-11-24T06:20:09.234Z,97518.47
2022-11-24T06:22:35.777Z,97514.78
2022-11-24T06:25:02.238Z,97522.50
2022-11-24T06:27:28.709Z,97524.38
2022-11-24T06:29:55.207Z,97532.91
2022-11-24T06:32:21.727Z,97529.72
2022-11-24T06:34:48.190Z,97531.88
2022-11-24T06:37:14.725Z,97540.91
2022-11-24T06:39:41.217Z,97535.34
2022-11-24T06:42:07.697Z,97541.25
2022-11-24T06:44:34.432Z,97545.75
2022-11-24T06:47:01.671Z,97553.47
2022-11-24T06:49:28.154Z,97548.16
2022-11-24T06:51:54.967Z,97558.50
2022-11-24T06:54:22.110Z,97561.16
2022-11-24T06:56:48.626Z,97569.69
2022-11-24T06:59:17.302Z,97571.81
2022-11-24T07:01:43.794Z,97576.34
2022-11-24T07:04:11.323Z,97570.22
2022-11-24T07:06:39.961Z,97578.22
2022-11-24T07:09:06.521Z,97580.13
2022-11-24T07:11:33.025Z,97590.19
2022-11-24T07:14:00.247Z,97596.84
2022-11-24T07:16:27.392Z,97592.59
2022-11-24T07:18:53.992Z,97601.38
2022-11-24T07:21:21.180Z,97602.44
2022-11-24T07:23:55.429Z,97595.50
2022-11-24T07:26:22.401Z,97599.25
2022-11-24T07:28:48.949Z,97604.84
2022-11-24T07:31:18.782Z,97608.03
2022-11-24T07:33:52.498Z,97611.53
2022-11-24T07:36:19.041Z,97620.88
2022-11-24T07:38:45.513Z,97621.38
2022-11-24T07:41:12.715Z,97631.47
2022-11-24T07:43:39.216Z,97637.31
2022-11-24T07:46:06.810Z,97633.88
2022-11-24T07:48:34.123Z,97634.16
2022-11-24T07:51:01.130Z,97634.16
2022-11-24T07:53:27.974Z,97634.69
2022-11-24T07:56:00.214Z,97635.75
2022-11-24T07:58:32.646Z,97639.22
2022-11-24T08:00:59.557Z,97649.56
2022-11-24T08:03:26.087Z,97650.94
2022-11-24T08:08:46.227Z,97649.06
2022-11-24T08:11:14.630Z,97644.81
2022-11-24T08:13:41.250Z,97648.25
2022-11-24T08:16:12.359Z,97643.97
2022-11-24T08:18:39.069Z,97642.69
2022-11-24T08:21:05.922Z,97651.44
2022-11-24T08:23:32.486Z,97657.06
2022-11-24T08:26:04.769Z,97644.00
2022-11-24T08:28:31.954Z,97647.72
2022-11-24T08:31:09.023Z,97652.53
2022-11-24T08:33:35.726Z,97659.44
2022-11-24T08:36:03.774Z,97659.44
2022-11-24T08:38:30.255Z,97666.34
2022-11-24T08:41:03.030Z,97669.25
2022-11-24T08:43:29.572Z,97674.06
2022-11-24T08:45:59.544Z,97679.91
2022-11-24T08:48:26.017Z,97685.50
2022-11-24T08:50:52.457Z,97693.19
2022-11-24T08:53:19.273Z,97689.19
2022-11-24T08:55:46.066Z,97691.63
2022-11-24T08:58:12.514Z,97700.66
2022-11-24T09:00:38.969Z,97699.06
2022-11-24T09:03:05.771Z,97702.53
2022-11-24T09:08:19.592Z,97711.31
2022-11-24T09:10:46.722Z,97709.69
2022-11-24T09:13:13.186Z,97716.88
2022-11-24T09:15:40.348Z,97718.22
2022-11-24T09:18:06.806Z,97717.69
2022-11-24T09:20:33.246Z,97721.94
2022-11-24T09:22:59.719Z,97729.41
2022-11-24T09:25:26.412Z,97732.34
2022-11-24T09:27:53.632Z,97726.75
2022-11-24T09:30:20.357Z,97733.41
2022-11-24T09:32:46.830Z,97726.22
2022-11-24T09:35:13.284Z,97726.25
2022-11-24T09:37:39.926Z,97734.78
2022-11-24T09:40:07.155Z,97732.13
2022-11-24T09:42:53.667Z,97730.00
2022-11-24T09:46:03.910Z,97735.03
2022-11-24T09:48:25.986Z,97728.91
2022-11-24T09:50:52.685Z,97743.28
2022-11-24T09:53:29.705Z,97736.09
2022-11-24T09:55:58.361Z,97736.63
2022-11-24T09:58:33.960Z,97735.28
2022-11-24T10:01:00.528Z,97739.53
2022-11-24T10:03:43.518Z,97746.97
2022-11-24T10:06:23.252Z,97744.81
2022-11-24T10:09:28.209Z,97750.97
2022-11-24T10:12:13.814Z,97746.94
2022-11-24T10:14:54.940Z,97749.34
2022-11-24T10:17:29.103Z,97746.69
2022-11-24T10:20:16.727Z,97750.16
2022-11-24T10:22:43.058Z,97760.50
2022-11-24T10:25:42.067Z,97762.66
2022-11-24T10:28:10.531Z,97765.03
2022-11-24T10:30:37.041Z,97762.13
2022-11-24T10:33:16.117Z,97757.59
2022-11-24T10:36:02.974Z,97763.72
2022-11-24T10:38:44.129Z,97771.69
2022-11-24T10:41:16.678Z,97761.84
2022-11-24T10:43:43.366Z,97766.66
2022-11-24T10:46:28.497Z,97767.97
2022-11-24T10:49:03.122Z,97775.16
2022-11-24T10:52:02.130Z,97774.91
2022-11-24T10:54:28.737Z,97773.03
2022-11-24T10:56:55.489Z,97775.69
2022-11-24T10:59:36.967Z,97778.59
2022-11-24T11:02:30.025Z,97780.22
2022-11-24T11:04:56.621Z,97785.53
2022-11-24T11:07:25.303Z,97776.75
2022-11-24T11:10:11.227Z,97783.69
2022-11-24T11:12:45.369Z,97781.00
2022-11-24T11:15:29.041Z,97783.69
2022-11-24T11:18:01.996Z,97782.88
2022-11-24T11:20:33.510Z,97779.41
2022-11-24T11:23:14.589Z,97782.88
2022-11-24T11:25:41.156Z,97782.34
2022-11-24T11:28:18.823Z,97785.28
2022-11-24T11:36:29.886Z,97801.50
2022-11-24T11:38:56.388Z,97803.63
2022-11-24T11:41:30.464Z,97797.50
2022-11-24T11:43:59.024Z,97802.03
2022-11-24T11:46:25.524Z,97804.97
2022-11-24T11:48:52.845Z,97815.59
2022-11-24T11:51:41.561Z,97808.94
2022-11-24T11:54:30.458Z,97825.69
2022-11-24T11:57:30.016Z,97816.66
2022-11-24T12:00:16.211Z,97818.50
2022-11-24T12:03:09.936Z,97829.94
2022-11-24T12:05:58.666Z,97833.38
2022-11-24T12:09:21.446Z,97829.16
2022-11-24T12:11:45.107Z,97827.28
2022-11-24T12:14:40.963Z,97838.72
2022-11-24T12:17:13.250Z,97849.63
2022-11-24T12:19:51.857Z,97847.25
2022-11-24T12:22:24.514Z,97852.28
2022-11-24T12:24:59.820Z,97850.16
2022-11-24T12:27:37.736Z,97857.06
2022-11-24T12:30:16.152Z,97852.00
2022-11-24T12:32:42.755Z,97862.38
2022-11-24T12:35:29.625Z,97864.53
2022-11-24T12:38:05.020Z,97868.25
2022-11-24T12:40:38.921Z,97867.44
2022-11-24T12:43:13.481Z,97859.72
2022-11-24T12:45:46.458Z,97861.31
2022-11-24T12:48:42.364Z,97864.50
2022-11-24T12:51:18.473Z,97865.03
2022-11-24T12:53:46.547Z,97866.63
2022-11-24T12:56:14.571Z,97871.16
2022-11-24T12:59:03.364Z,97870.38
2022-11-24T13:01:43.160Z,97878.91
2022-11-24T13:04:15.918Z,97878.59
2022-11-24T13:07:00.218Z,97882.31
2022-11-24T13:09:26.667Z,97880.97
2022-11-24T13:11:56.689Z,97891.31
2022-11-24T13:14:32.265Z,97888.63
2022-11-24T13:17:28.852Z,97889.41
2022-11-24T13:19:50.642Z,97894.22
2022-11-24T13:22:23.335Z,97899.50
2022-11-24T13:25:04.677Z,97906.47
2022-11-24T13:27:40.980Z,97897.44
2022-11-24T13:30:33.843Z,97902.50
2022-11-24T13:33:27.773Z,97897.44
2022-11-24T13:36:03.955Z,97909.94
2022-11-24T13:38:45.786Z,97908.09
2022-11-24T13:41:32.378Z,97907.06
2022-11-24T13:44:14.904Z,97907.59
2022-11-24T13:47:26.801Z,97913.44
2022-11-24T13:49:53.289Z,97915.06
2022-11-24T13:52:47.537Z,97920.91
2022-11-24T13:55:13.884Z,97925.44
2022-11-24T13:57:48.004Z,97929.44
2022-11-24T14:00:20.663Z,97931.03
2022-11-24T14:02:47.216Z,97938.75
2022-11-24T14:05:17.619Z,97939.28
2022-11-24T14:07:45.333Z,97938.75
2022-11-24T14:10:16.152Z,97945.41
2022-11-24T14:12:43.692Z,97942.47
2022-11-24T14:15:28.537Z,97946.72
2022-11-24T14:17:55.001Z,97948.34
2022-11-24T14:20:23.788Z,97949.66
2022-11-24T14:22:50.599Z,97944.34
2022-11-24T14:25:24.100Z,97940.34
2022-11-24T14:27:50.653Z,97937.97
2022-11-24T14:30:19.592Z,97949.66
2022-11-24T14:33:02.270Z,97949.66
2022-11-24T14:35:33.167Z,97952.03
2022-11-24T14:38:03.769Z,97949.34
2022-11-24T14:40:47.157Z,97957.88
2022-11-24T14:43:40.328Z,97957.59
2022-11-24T14:46:12.123Z,97957.06
2022-11-24T14:48:45.796Z,97957.84
2022-11-24T14:51:18.142Z,97962.09
2022-11-24T14:53:45.201Z,97961.81
2022-11-24T14:56:47.934Z,97962.91
2022-11-24T14:59:20.985Z,97970.09
2022-11-24T15:01:47.477Z,97976.50
2022-11-24T15:04:54.522Z,97978.34
2022-11-24T15:07:25.692Z,97969.31
2022-11-24T15:09:53.739Z,97979.72
2022-11-24T15:12:34.731Z,97987.72
2022-11-24T15:15:05.225Z,97987.97
2022-11-24T15:17:31.795Z,97991.97
2022-11-24T15:20:09.694Z,97983.19
2022-11-24T15:22:40.852Z,97986.38
2022-11-24T15:25:25.911Z,97994.09
2022-11-24T15:27:52.822Z,97990.41
2022-11-24T15:30:19.316Z,97998.13
2022-11-24T15:32:55.736Z,97992.78
2022-11-24T15:35:22.815Z,97997.03
2022-11-24T15:37:49.862Z,97992.75
2022-11-24T15:40:16.486Z,97997.28
2022-11-24T15:42:48.726Z,98002.88
2022-11-24T15:45:15.261Z,98005.00
2022-11-24T15:47:41.722Z,97998.59
2022-11-24T15:50:08.697Z,98001.28
2022-11-24T15:52:35.215Z,97998.09
2022-11-24T15:55:01.685Z,98001.81
2022-11-24T15:57:28.210Z,98008.22
2022-11-24T15:59:54.720Z,98012.19
2022-11-24T16:02:21.854Z,98014.59
2022-11-24T16:04:48.973Z,98018.59
2022-11-24T16:07:15.553Z,98016.47
2022-11-24T16:09:42.071Z,98026.31
2022-11-24T16:12:08.641Z,98018.88
2022-11-24T16:14:35.884Z,98035.91
2022-11-24T16:17:02.694Z,98033.78
2022-11-24T16:19:29.223Z,98041.25
2022-11-24T16:21:55.691Z,98046.56
2022-11-24T16:24:22.177Z,98044.44
2022-11-24T16:26:48.635Z,98047.63
2022-11-24T16:29:15.115Z,98050.00
2022-11-24T16:31:43.459Z,98049.50
2022-11-24T16:34:10.115Z,98042.56
2022-11-24T16:36:36.598Z,98048.69
2022-11-24T16:39:03.111Z,98046.31
2022-11-24T16:41:29.631Z,98052.16
2022-11-24T16:43:56.131Z,98055.09
2022-11-24T16:46:24.059Z,98055.88
2022-11-24T16:48:51.791Z,98056.16
2022-11-24T16:51:19.753Z,98053.22
2022-11-24T16:53:46.247Z,98052.94
2022-11-24T16:56:14.289Z,98051.88
2022-11-24T16:58:40.944Z,98055.59
2022-11-24T17:01:10.218Z,98055.53
2022-11-24T17:03:39.628Z,98055.47
2022-11-24T17:06:07.410Z,98055.97
2022-11-24T17:08:34.923Z,98057.59
2022-11-24T17:11:12.435Z,98056.16
2022-11-24T17:13:39.054Z,98065.16
2022-11-24T17:16:06.613Z,98060.78
2022-11-24T17:18:33.361Z,98066.31
2022-11-24T17:21:02.098Z,98060.47
2022-11-24T17:23:32.622Z,98067.06
2022-11-24T17:26:02.702Z,98061.38
2022-11-24T17:28:29.363Z,98072.56
2022-11-24T17:30:55.902Z,98066.16
2022-11-24T17:33:22.422Z,98068.78
2022-11-24T17:35:49.167Z,98074.94
2022-11-24T17:38:15.674Z,98071.16
2022-11-24T17:40:47.074Z,98066.09
2022-11-24T17:43:13.516Z,98065.56
2022-11-24T17:45:40.014Z,98067.66
2022-11-24T17:48:06.648Z,98068.19
2022-11-24T17:50:33.113Z,98071.19
2022-11-24T17:52:59.608Z,98071.44
2022-11-24T17:55:26.071Z,98068.44
2022-11-24T17:57:52.593Z,98076.41
2022-11-24T18:00:19.364Z,98075.56
2022-11-24T18:02:45.899Z,98079.31
2022-11-24T18:05:12.436Z,98073.44
2022-11-24T18:07:38.969Z,98083.88
2022-11-24T18:10:06.024Z,98085.00
2022-11-24T18:12:32.580Z,98076.19
2022-11-24T18:14:59.787Z,98087.34
2022-11-24T18:17:26.254Z,98082.00
2022-11-24T18:19:52.737Z,98087.09
2022-11-24T18:22:36.639Z,98087.09
2022-11-24T18:25:06.988Z,98092.69
2022-11-24T18:27:33.447Z,98088.50
2022-11-24T18:30:00.040Z,98093.31
2022-11-24T18:32:26.545Z,98082.94
2022-11-24T18:34:54.078Z,98084.50
2022-11-24T18:37:20.573Z,98076.78
2022-11-24T18:39:47.422Z,98081.66
2022-11-24T18:42:14.217Z,98084.88
2022-11-24T18:44:42.323Z,98090.72
2022-11-24T18:47:08.940Z,98088.91
2022-11-24T18:49:35.416Z,98092.34
2022-11-24T18:52:01.879Z,98088.09
2022-11-24T18:54:28.429Z,98085.13
2022-11-24T18:56:58.906Z,98089.63
2022-11-24T18:59:28.350Z,98087.56
2022-11-24T19:01:55.967Z,98086.81
2022-11-24T19:04:23.970Z,98094.28
2022-11-24T19:06:50.434Z,98087.63
2022-11-24T19:09:18.618Z,98088.09
2022-11-24T19:11:45.366Z,98092.19
2022-11-24T19:14:16.463Z,98088.19
2022-11-24T19:16:43.204Z,98095.91
2022-11-24T19:21:51.540Z,98098.66
2022-11-24T19:24:17.968Z,98096.50
2022-11-24T19:26:44.384Z,98091.72
2022-11-24T19:29:10.829Z,98085.28
2022-11-24T19:31:39.307Z,98079.44
2022-11-24T19:34:05.927Z,98090.69
2022-11-24T19:36:32.720Z,98086.66
2022-11-24T19:38:59.504Z,98091.50
2022-11-24T19:41:29.672Z,98092.56
2022-11-24T19:43:57.827Z,98091.53
2022-11-24T19:46:27.933Z,98095.81
2022-11-24T19:48:56.318Z,98096.59
2022-11-24T19:51:27.413Z,98104.13
2022-11-24T19:56:21.318Z,98099.59
2022-11-24T19:58:47.856Z,98102.50
2022-11-24T20:01:24.912Z,98103.81
2022-11-24T20:03:54.961Z,98107.28
2022-11-24T20:06:21.637Z,98107.06
2022-11-24T20:08:48.175Z,98108.94
2022-11-24T20:11:16.029Z,98113.47
2022-11-24T20:13:43.328Z,98116.09
2022-11-24T20:16:17.137Z,98117.16
2022-11-24T20:18:44.641Z,98115.53
2022-11-24T20:21:12.656Z,98120.63
2022-11-24T20:23:39.509Z,98125.97
2022-11-24T20:26:08.171Z,98130.00
2022-11-24T20:28:34.733Z,98127.81
2022-11-24T20:31:05.914Z,98125.13
2022-11-24T20:33:32.366Z,98127.25
2022-11-24T20:36:06.629Z,98135.75
2022-11-24T20:38:34.428Z,98134.44
2022-11-24T20:41:11.573Z,98138.66
2022-11-24T20:43:38.372Z,98137.56
2022-11-24T20:46:16.019Z,98134.06
2022-11-24T20:48:42.505Z,98133.75
2022-11-24T20:51:13.968Z,98136.44
2022-11-24T20:53:40.846Z,98139.34
2022-11-24T20:56:12.144Z,98131.59
2022-11-24T20:58:38.612Z,98135.59
2022-11-24T21:01:05.074Z,98138.19
2022-11-24T21:03:31.587Z,98134.66
2022-11-24T21:05:58.067Z,98142.13
2022-11-24T21:08:24.525Z,98144.00
2022-11-24T21:10:57.389Z,98144.56
2022-11-24T21:13:23.827Z,98145.09
2022-11-24T21:15:50.640Z,98141.88
2022-11-24T21:18:17.431Z,98143.16
2022-11-24T21:20:44.048Z,98138.03
2022-11-24T21:23:10.561Z,98137.53
2022-11-24T21:25:37.017Z,98140.75
2022-11-24T21:28:03.561Z,98138.13
2022-11-24T21:30:30.068Z,98143.38
2022-11-24T21:32:56.516Z,98149.56
2022-11-24T21:35:22.971Z,98151.38
2022-11-24T21:37:49.479Z,98153.06
2022-11-24T21:40:15.965Z,98155.19
2022-11-24T21:42:42.404Z,98155.19
2022-11-24T21:45:11.519Z,98150.38
2022-11-24T21:47:38.416Z,98157.16
2022-11-24T21:50:06.534Z,98153.13
2022-11-24T21:52:33.212Z,98153.97
2022-11-24T21:54:59.934Z,98160.69
2022-11-24T21:57:26.541Z,98155.34
2022-11-24T21:59:53.035Z,98142.81
2022-11-24T22:02:19.514Z,98152.69
2022-11-24T22:04:45.999Z,98138.81
2022-11-24T22:07:12.696Z,98147.91
2022-11-24T22:09:39.232Z,98138.31
2022-11-24T22:12:05.947Z,98136.72
2022-11-24T22:14:36.101Z,98137.50
2022-11-24T22:17:05.428Z,98138.56
2022-11-24T22:19:31.882Z,98139.94
2022-11-24T22:21:58.333Z,98146.34
2022-11-24T22:24:35.939Z,98142.59
2022-11-24T22:27:02.931Z,98134.59
2022-11-24T22:29:29.396Z,98146.59
2022-11-24T22:31:56.287Z,98145.00
2022-11-24T22:34:22.794Z,98146.09
2022-11-24T22:36:49.244Z,98138.59
2022-11-24T22:39:15.695Z,98139.78
2022-11-24T22:41:42.202Z,98144.03
2022-11-24T22:44:08.745Z,98145.63
2022-11-24T22:46:35.201Z,98145.47
2022-11-24T22:49:01.806Z,98145.53
2022-11-24T22:51:33.060Z,98145.91
2022-11-24T22:54:01.176Z,98145.16
2022-11-24T22:56:27.955Z,98137.94
2022-11-24T22:58:54.497Z,98139.56
2022-11-24T23:01:22.407Z,98140.56
2022-11-24T23:03:49.474Z,98134.69
2022-11-24T23:06:18.318Z,98136.81
2022-11-24T23:08:44.790Z,98137.84
2022-11-24T23:11:12.032Z,98134.84
2022-11-24T23:13:38.773Z,98137.47
2022-11-24T23:16:07.258Z,98143.06
2022-11-24T23:18:34.132Z,98136.34
2022-11-24T23:21:33.644Z,98142.47
2022-11-24T23:24:01.459Z,98131.50
2022-11-24T23:26:33.508Z,98135.22
2022-11-24T23:28:59.991Z,98133.31
2022-11-24T23:31:29.909Z,98132.75
2022-11-24T23:34:00.722Z,98123.66
2022-11-24T23:36:27.259Z,98137.00
2022-11-24T23:38:54.351Z,98130.59
2022-11-24T23:41:22.859Z,98136.72
2022-11-24T23:43:49.322Z,98140.44
2022-11-24T23:46:20.455Z,98140.72
2022-11-24T23:48:47.065Z,98127.91
2022-11-24T23:51:15.266Z,98135.22
2022-11-24T23:53:42.095Z,98140.00
2022-11-24T23:56:13.810Z,98122.13
2022-11-24T23:58:40.268Z,98118.63
